Barachois, Canada
Current Conditions -  °F | °C
As of 11:00 PM on Friday 24 Oct 2014 (Local Time) from CYGP Reporting Station
Light Rain Light Rain  
Wind Chill: 43°   Ceiling: 2000
Heat Index: 43°   Visibility: 5mi
Dew Point: 37°   Wind: 2mph
Humidity: 81%   Direction: NA
Pressure: 29.67"   Gusts: NA
Location:  48.62°N, 64.28°W
Report Text: CYGP 250300Z VRB02KT 5SM -RA BR OVC020 06/03 A2967 RMK SC8 SLP050
Loading
Personal Weather Stations






























Interactive Weather Map
Tropical Storm Tracking
New forecast layout! Learn more

10-Day Weather Forecast

Advertisements
Track Severe Weather on mobile